createdAt,value
2022-10-14T00:01:18.911Z,14.73
2022-10-14T00:03:46.052Z,14.53
2022-10-14T00:06:17.431Z,14.58
2022-10-14T00:08:45.312Z,14.61
2022-10-14T00:11:21.105Z,14.75
2022-10-14T00:13:48.540Z,14.64
2022-10-14T00:16:23.761Z,14.66
2022-10-14T00:18:51.099Z,14.74
2022-10-14T00:21:18.120Z,14.74
2022-10-14T00:23:45.931Z,14.97
2022-10-14T00:26:16.131Z,14.72
2022-10-14T00:28:43.321Z,14.69
2022-10-14T00:31:10.079Z,14.50
2022-10-14T00:33:36.760Z,14.49
2022-10-14T00:36:05.686Z,14.55
2022-10-14T00:38:36.042Z,14.43
2022-10-14T00:41:04.188Z,14.41
2022-10-14T00:44:13.656Z,14.38
2022-10-14T00:46:46.052Z,14.49
2022-10-14T00:49:21.061Z,14.66
2022-10-14T00:51:52.328Z,14.60
2022-10-14T00:54:23.002Z,14.51
2022-10-14T00:56:52.608Z,14.49
2022-10-14T00:59:19.561Z,14.42
2022-10-14T01:01:46.253Z,14.55
2022-10-14T01:04:13.081Z,14.58
2022-10-14T01:07:04.390Z,14.64
2022-10-14T01:09:43.239Z,14.60
2022-10-14T01:12:31.048Z,14.52
2022-10-14T01:15:13.349Z,14.63
2022-10-14T01:17:51.052Z,14.55
2022-10-14T01:21:00.240Z,14.48
2022-10-14T01:23:43.379Z,14.48
2022-10-14T01:26:09.945Z,14.40
2022-10-14T01:28:58.080Z,14.39
2022-10-14T01:31:30.793Z,14.55
2022-10-14T01:34:00.609Z,14.45
2022-10-14T01:36:33.162Z,14.41
2022-10-14T01:39:16.192Z,14.39
2022-10-14T01:41:51.108Z,14.72
2022-10-14T01:44:20.162Z,14.59
2022-10-14T01:46:52.445Z,14.58
2022-10-14T01:49:34.625Z,14.54
2022-10-14T01:52:07.666Z,14.40
2022-10-14T01:54:39.094Z,14.50
2022-10-14T01:57:11.541Z,14.41
2022-10-14T01:59:40.204Z,14.39
2022-10-14T02:02:06.999Z,14.34
2022-10-14T02:04:33.777Z,14.59
2022-10-14T02:07:07.873Z,14.50
2022-10-14T02:09:46.867Z,14.58
2022-10-14T02:12:51.338Z,14.38
2022-10-14T02:15:33.075Z,14.41
2022-10-14T02:18:05.465Z,14.31
2022-10-14T02:20:42.269Z,14.42
2022-10-14T02:23:36.820Z,14.33
2022-10-14T02:26:04.492Z,14.39
2022-10-14T02:28:33.290Z,14.34
2022-10-14T02:31:04.537Z,14.37
2022-10-14T02:33:37.351Z,14.40
2022-10-14T02:36:09.998Z,14.31
2022-10-14T02:38:37.977Z,14.29
2022-10-14T02:41:06.623Z,14.26
2022-10-14T02:43:35.500Z,14.31
2022-10-14T02:46:06.199Z,14.43
2022-10-14T02:48:33.639Z,14.43
2022-10-14T02:51:00.323Z,14.32
2022-10-14T02:53:26.996Z,14.40
2022-10-14T02:55:53.684Z,14.33
2022-10-14T02:58:20.339Z,14.28
2022-10-14T03:00:49.898Z,14.38
2022-10-14T03:03:17.522Z,14.29
2022-10-14T03:05:44.396Z,14.25
2022-10-14T03:08:13.650Z,14.47
2022-10-14T03:10:40.576Z,14.25
2022-10-14T03:13:09.949Z,14.45
2022-10-14T03:15:41.795Z,14.38
2022-10-14T03:18:10.466Z,14.24
2022-10-14T03:20:44.832Z,14.22
2022-10-14T03:23:14.561Z,14.15
2022-10-14T03:25:46.205Z,14.20
2022-10-14T03:28:21.534Z,14.46
2022-10-14T03:30:53.870Z,14.20
2022-10-14T03:33:37.977Z,14.08
2022-10-14T03:36:08.857Z,14.17
2022-10-14T03:38:44.692Z,14.25
2022-10-14T03:41:20.310Z,14.15
2022-10-14T03:43:47.341Z,14.20
2022-10-14T03:46:14.437Z,14.33
2022-10-14T03:48:42.169Z,14.35
2022-10-14T03:51:09.365Z,14.51
2022-10-14T03:53:36.412Z,14.15
2022-10-14T03:56:03.146Z,14.51
2022-10-14T03:58:31.483Z,14.23
2022-10-14T04:01:04.230Z,14.02
2022-10-14T04:03:41.060Z,14.13
2022-10-14T04:06:07.897Z,14.06
2022-10-14T04:08:36.186Z,14.11
2022-10-14T04:11:15.141Z,14.23
2022-10-14T04:13:41.929Z,14.35
2022-10-14T04:16:14.628Z,14.22
2022-10-14T04:19:00.777Z,14.08
2022-10-14T04:21:27.472Z,14.28
2022-10-14T04:23:54.286Z,14.25
2022-10-14T04:26:33.090Z,14.12
2022-10-14T04:29:00.049Z,14.12
2022-10-14T04:31:33.318Z,14.14
2022-10-14T04:34:02.576Z,14.30
2022-10-14T04:36:39.286Z,14.14
2022-10-14T04:39:19.864Z,14.37
2022-10-14T04:41:47.345Z,14.17
2022-10-14T04:44:18.735Z,14.12
2022-10-14T04:46:49.971Z,14.22
2022-10-14T04:49:19.197Z,14.20
2022-10-14T04:51:54.436Z,14.30
2022-10-14T04:54:28.088Z,14.26
2022-10-14T04:56:57.525Z,14.22
2022-10-14T04:59:24.198Z,14.23
2022-10-14T05:02:14.180Z,14.16
2022-10-14T05:04:47.649Z,14.14
2022-10-14T05:07:17.211Z,14.23
2022-10-14T05:09:49.634Z,14.27
2022-10-14T05:12:24.318Z,14.12
2022-10-14T05:14:56.679Z,14.20
2022-10-14T05:17:30.587Z,14.51
2022-10-14T05:19:57.361Z,14.30
2022-10-14T05:22:28.291Z,14.36
2022-10-14T05:24:55.498Z,14.35
2022-10-14T05:27:22.448Z,14.25
2022-10-14T05:29:50.553Z,14.36
2022-10-14T05:32:17.812Z,14.38
2022-10-14T05:34:46.049Z,14.43
2022-10-14T05:37:34.458Z,14.20
2022-10-14T05:40:01.078Z,14.05
2022-10-14T05:42:30.532Z,14.31
2022-10-14T05:44:58.912Z,14.22
2022-10-14T05:47:27.894Z,14.18
2022-10-14T05:49:59.219Z,14.06
2022-10-14T05:52:26.190Z,14.26
2022-10-14T05:54:53.920Z,14.23
2022-10-14T05:57:24.980Z,14.21
2022-10-14T05:59:52.199Z,14.37
2022-10-14T06:02:19.379Z,14.30
2022-10-14T06:04:46.768Z,14.27
2022-10-14T06:07:13.807Z,14.16
2022-10-14T06:09:40.638Z,14.52
2022-10-14T06:12:09.658Z,14.34
2022-10-14T06:14:38.521Z,14.29
2022-10-14T06:17:06.178Z,14.17
2022-10-14T06:19:33.311Z,14.25
2022-10-14T06:22:00.256Z,14.31
2022-10-14T06:24:26.964Z,14.19
2022-10-14T06:26:53.655Z,14.23
2022-10-14T06:29:20.693Z,14.60
2022-10-14T06:31:47.793Z,14.70
2022-10-14T06:34:14.578Z,14.50
2022-10-14T06:36:41.271Z,14.38
2022-10-14T06:39:07.880Z,14.36
2022-10-14T06:41:34.595Z,14.38
2022-10-14T06:44:01.567Z,14.72
2022-10-14T06:46:28.222Z,14.71
2022-10-14T06:48:55.030Z,14.61
2022-10-14T06:51:21.757Z,14.57
2022-10-14T06:53:48.335Z,14.46
2022-10-14T06:56:15.052Z,14.42
2022-10-14T06:58:41.741Z,14.52
2022-10-14T07:01:09.091Z,14.73
2022-10-14T07:03:38.692Z,14.80
2022-10-14T07:06:07.578Z,14.81
2022-10-14T07:08:34.756Z,14.80
2022-10-14T07:11:01.826Z,14.58
2022-10-14T07:13:28.655Z,14.69
2022-10-14T07:15:55.405Z,14.65
2022-10-14T07:18:22.194Z,14.69
2022-10-14T07:20:48.943Z,14.62
2022-10-14T07:23:16.801Z,14.73
2022-10-14T07:25:43.752Z,14.59
2022-10-14T07:28:10.642Z,14.54
2022-10-14T07:30:37.721Z,14.64
2022-10-14T07:33:04.713Z,14.76
2022-10-14T07:35:31.461Z,14.99
2022-10-14T07:37:58.942Z,14.90
2022-10-14T07:40:25.849Z,14.99
2022-10-14T07:42:52.581Z,14.67
2022-10-14T07:45:21.097Z,14.87
2022-10-14T07:47:50.316Z,14.66
2022-10-14T07:50:17.387Z,14.66
2022-10-14T07:52:44.200Z,14.70
2022-10-14T07:55:10.967Z,14.74
2022-10-14T07:57:37.658Z,14.78
2022-10-14T08:00:05.348Z,14.78
2022-10-14T08:02:38.730Z,14.87
2022-10-14T08:05:33.059Z,14.90
2022-10-14T08:07:52.661Z,14.76
2022-10-14T08:10:19.348Z,15.00
2022-10-14T08:12:46.257Z,15.05
2022-10-14T08:15:12.928Z,15.21
2022-10-14T08:17:39.637Z,15.06
2022-10-14T08:20:06.859Z,15.10
2022-10-14T08:22:33.656Z,15.25
2022-10-14T08:25:00.442Z,15.14
2022-10-14T08:27:27.217Z,15.16
2022-10-14T08:29:54.541Z,15.45
2022-10-14T08:32:21.519Z,15.36
2022-10-14T08:34:48.347Z,15.45
2022-10-14T08:37:15.218Z,15.40
2022-10-14T08:39:41.868Z,15.70
2022-10-14T08:42:27.040Z,15.55
2022-10-14T08:44:59.281Z,15.47
2022-10-14T08:47:36.745Z,15.70
2022-10-14T08:50:26.117Z,15.54
2022-10-14T08:52:56.099Z,15.48
2022-10-14T08:55:33.281Z,15.60
2022-10-14T08:58:12.495Z,15.62
2022-10-14T09:00:42.543Z,15.58
2022-10-14T09:03:21.310Z,15.58
2022-10-14T09:06:00.433Z,15.58
2022-10-14T09:08:49.789Z,15.71
2022-10-14T09:11:22.111Z,15.64
2022-10-14T09:13:56.247Z,15.61
2022-10-14T09:16:29.682Z,15.68
2022-10-14T09:19:02.481Z,16.17
2022-10-14T09:21:52.067Z,16.15
2022-10-14T09:24:41.997Z,16.21
2022-10-14T09:27:15.351Z,16.56
2022-10-14T09:29:59.335Z,16.46
2022-10-14T09:32:41.036Z,16.58
2022-10-14T09:35:25.255Z,16.54
2022-10-14T09:37:52.673Z,16.65
2022-10-14T09:40:34.606Z,16.49
2022-10-14T09:43:06.712Z,16.50
2022-10-14T09:45:56.625Z,16.66
2022-10-14T09:48:42.914Z,16.65
2022-10-14T09:51:29.589Z,16.72
2022-10-14T09:53:58.829Z,16.56
2022-10-14T09:56:40.659Z,16.52
2022-10-14T09:59:21.103Z,16.51
2022-10-14T10:01:54.810Z,16.70
2022-10-14T10:04:47.148Z,16.63
2022-10-14T10:07:31.084Z,16.52
2022-10-14T10:10:01.518Z,16.49
2022-10-14T10:12:33.864Z,16.47
2022-10-14T10:15:06.589Z,16.49
2022-10-14T10:17:35.983Z,16.48
2022-10-14T10:20:09.816Z,16.59
2022-10-14T10:22:38.828Z,16.76
2022-10-14T10:25:08.264Z,16.76
2022-10-14T10:27:37.649Z,16.74
2022-10-14T10:30:38.761Z,16.81
2022-10-14T10:33:21.695Z,16.71
2022-10-14T10:35:52.027Z,16.69
2022-10-14T10:41:15.112Z,16.82
2022-10-14T10:44:07.882Z,16.79
2022-10-14T10:46:56.595Z,16.75
2022-10-14T10:49:48.035Z,16.78
2022-10-14T10:52:21.467Z,16.63
2022-10-14T10:55:01.078Z,16.59
2022-10-14T10:57:41.685Z,16.57
2022-10-14T11:00:20.903Z,16.38
2022-10-14T11:02:55.119Z,16.31
2022-10-14T11:05:40.664Z,16.48
2022-10-14T11:08:51.057Z,16.42
2022-10-14T11:11:48.770Z,16.54
2022-10-14T11:14:28.112Z,16.44
2022-10-14T11:17:14.506Z,16.32
2022-10-14T11:19:59.929Z,16.42
2022-10-14T11:23:04.616Z,16.53
2022-10-14T11:25:46.155Z,16.44
2022-10-14T11:28:36.162Z,16.38
2022-10-14T11:31:26.851Z,16.31
2022-10-14T11:34:28.176Z,16.09
2022-10-14T11:37:22.106Z,16.33
2022-10-14T11:40:04.952Z,16.51
2022-10-14T11:42:43.546Z,16.48
2022-10-14T11:45:22.019Z,16.45
2022-10-14T11:48:19.727Z,16.58
2022-10-14T11:50:49.453Z,16.46
2022-10-14T11:53:19.892Z,16.45
2022-10-14T11:55:54.574Z,16.60
2022-10-14T11:58:25.901Z,16.52
2022-10-14T12:00:56.071Z,16.50
2022-10-14T12:04:04.993Z,16.39
2022-10-14T12:06:43.794Z,16.39
2022-10-14T12:09:21.944Z,16.36
2022-10-14T12:11:54.066Z,16.63
2022-10-14T12:14:32.379Z,16.74
2022-10-14T12:17:02.661Z,16.58
2022-10-14T12:19:30.488Z,16.59
2022-10-14T12:22:19.513Z,16.56
2022-10-14T12:25:00.628Z,16.46
2022-10-14T12:27:28.630Z,16.56
2022-10-14T12:29:58.471Z,16.56
2022-10-14T12:32:26.600Z,16.59
2022-10-14T12:35:01.394Z,16.53
2022-10-14T12:37:37.923Z,16.52
2022-10-14T12:40:07.631Z,16.47
2022-10-14T12:42:44.215Z,16.53
2022-10-14T12:45:26.121Z,16.48
2022-10-14T12:48:19.362Z,16.51
2022-10-14T12:50:48.330Z,16.52
2022-10-14T12:53:29.296Z,16.54
2022-10-14T12:55:58.324Z,16.51
2022-10-14T12:58:33.975Z,16.48
2022-10-14T13:01:06.683Z,16.79
2022-10-14T13:03:43.069Z,16.70
2022-10-14T13:06:36.335Z,16.78
2022-10-14T13:09:11.780Z,16.89
2022-10-14T13:11:51.230Z,16.90
2022-10-14T13:14:25.294Z,16.99
2022-10-14T13:16:51.832Z,16.92
2022-10-14T13:19:33.728Z,16.77
2022-10-14T13:22:05.279Z,16.88
2022-10-14T13:24:38.657Z,16.82
2022-10-14T13:27:29.974Z,16.73
2022-10-14T13:30:06.348Z,17.03
2022-10-14T13:32:42.833Z,17.05
2022-10-14T13:35:33.505Z,16.93
2022-10-14T13:38:03.807Z,17.05
2022-10-14T13:40:36.865Z,17.04
2022-10-14T13:43:18.617Z,16.97
2022-10-14T13:46:05.611Z,16.93
2022-10-14T13:48:43.189Z,16.97
2022-10-14T13:51:24.744Z,16.89
2022-10-14T13:54:33.284Z,16.89
2022-10-14T14:02:44.581Z,16.78
2022-10-14T14:05:19.446Z,16.87
2022-10-14T14:08:30.542Z,16.79
2022-10-14T14:10:39.366Z,16.75
2022-10-14T14:13:18.767Z,16.77
2022-10-14T14:15:50.432Z,16.60
2022-10-14T14:18:49.216Z,16.66
2022-10-14T14:21:25.565Z,16.72
2022-10-14T14:23:55.275Z,16.69
2022-10-14T14:26:29.401Z,16.72
2022-10-14T14:28:56.137Z,16.76
2022-10-14T14:31:30.400Z,16.73
2022-10-14T14:34:04.856Z,16.85
2022-10-14T14:36:50.055Z,16.82
2022-10-14T14:39:26.170Z,16.77
2022-10-14T14:41:55.112Z,16.89
2022-10-14T14:44:26.315Z,16.89
2022-10-14T14:46:58.041Z,16.92
2022-10-14T14:49:31.665Z,16.79
2022-10-14T14:52:00.286Z,16.82
2022-10-14T14:54:28.884Z,16.96
2022-10-14T14:57:08.213Z,16.80
2022-10-14T14:59:42.103Z,16.87
2022-10-14T15:02:23.316Z,17.00
2022-10-14T15:05:05.239Z,16.90
2022-10-14T15:07:32.368Z,16.86
2022-10-14T15:10:01.914Z,16.98
2022-10-14T15:12:42.018Z,17.03
2022-10-14T15:15:30.782Z,16.94
2022-10-14T15:18:22.011Z,16.78
2022-10-14T15:20:49.398Z,16.69
2022-10-14T15:23:39.537Z,16.60
2022-10-14T15:26:30.624Z,16.65
2022-10-14T15:32:01.371Z,16.65
2022-10-14T15:34:28.616Z,16.65
2022-10-14T15:36:55.337Z,16.55
2022-10-14T15:39:22.603Z,16.45
2022-10-14T15:41:49.248Z,16.31
2022-10-14T15:44:15.913Z,16.27
2022-10-14T15:47:03.352Z,16.29
2022-10-14T15:49:39.026Z,16.31
2022-10-14T15:52:05.763Z,16.35
2022-10-14T15:54:32.876Z,16.28
2022-10-14T15:56:59.439Z,16.25
2022-10-14T15:59:26.256Z,16.20
2022-10-14T16:01:53.135Z,16.32
2022-10-14T16:04:24.851Z,16.33
2022-10-14T16:06:55.355Z,16.21
2022-10-14T16:09:23.162Z,16.21
2022-10-14T16:11:56.982Z,16.33
2022-10-14T16:14:27.564Z,16.24
2022-10-14T16:16:54.756Z,16.14
2022-10-14T16:19:21.765Z,16.18
2022-10-14T16:21:50.153Z,16.36
2022-10-14T16:24:19.741Z,16.40
2022-10-14T16:26:48.956Z,16.30
2022-10-14T16:29:18.042Z,16.27
2022-10-14T16:31:47.107Z,16.11
2022-10-14T16:34:13.951Z,16.16
2022-10-14T16:36:40.822Z,16.18
2022-10-14T16:39:08.737Z,16.13
2022-10-14T16:41:36.100Z,16.19
2022-10-14T16:44:04.194Z,16.17
2022-10-14T16:46:50.004Z,16.12
2022-10-14T16:49:16.676Z,16.15
2022-10-14T16:51:44.418Z,16.28
2022-10-14T16:54:11.734Z,16.21
2022-10-14T16:57:07.486Z,16.25
2022-10-14T16:59:34.192Z,16.02
2022-10-14T17:02:01.113Z,16.37
2022-10-14T17:04:28.026Z,16.52
2022-10-14T17:06:58.564Z,16.32
2022-10-14T17:09:26.427Z,16.26
2022-10-14T17:11:54.699Z,16.48
2022-10-14T17:14:23.031Z,16.54
2022-10-14T17:16:52.268Z,16.67
2022-10-14T17:19:19.768Z,16.40
2022-10-14T17:21:48.690Z,16.62
2022-10-14T17:24:17.011Z,16.44
2022-10-14T17:26:45.054Z,16.19
2022-10-14T17:29:11.970Z,16.11
2022-10-14T17:31:38.901Z,16.08
2022-10-14T17:34:09.126Z,16.04
2022-10-14T17:36:35.946Z,16.03
2022-10-14T17:39:03.784Z,15.91
2022-10-14T17:41:30.903Z,16.23
2022-10-14T17:44:00.251Z,16.21
2022-10-14T17:46:29.297Z,16.12
2022-10-14T17:48:58.081Z,16.08
2022-10-14T17:51:25.890Z,15.96
2022-10-14T17:53:58.339Z,16.33
2022-10-14T17:56:26.850Z,16.50
2022-10-14T17:58:55.394Z,16.32
2022-10-14T18:01:36.716Z,16.22
2022-10-14T18:04:08.926Z,16.31
2022-10-14T18:06:37.277Z,16.18
2022-10-14T18:09:08.601Z,16.37
2022-10-14T18:12:08.773Z,16.42
2022-10-14T18:14:28.501Z,16.35
2022-10-14T18:16:55.146Z,16.39
2022-10-14T18:19:21.782Z,16.16
2022-10-14T18:21:48.398Z,16.38
2022-10-14T18:24:15.016Z,16.37
2022-10-14T18:26:41.695Z,16.16
2022-10-14T18:29:09.103Z,16.25
2022-10-14T18:31:36.238Z,16.47
2022-10-14T18:34:03.232Z,16.51
2022-10-14T18:36:33.034Z,16.51
2022-10-14T18:39:06.657Z,16.45
2022-10-14T18:41:34.021Z,16.31
2022-10-14T18:44:01.859Z,16.42
2022-10-14T18:46:31.448Z,16.35
2022-10-14T18:48:59.775Z,16.31
2022-10-14T18:51:29.583Z,16.38
2022-10-14T18:53:58.205Z,16.27
2022-10-14T18:56:27.895Z,16.20
2022-10-14T18:59:00.788Z,16.23
2022-10-14T19:01:29.142Z,16.20
2022-10-14T19:03:56.663Z,16.28
2022-10-14T19:06:24.252Z,16.23
2022-10-14T19:08:51.959Z,16.21
2022-10-14T19:11:21.583Z,16.20
2022-10-14T19:13:50.149Z,16.05
2022-10-14T19:16:21.813Z,15.94
2022-10-14T19:18:55.567Z,15.79
2022-10-14T19:21:26.444Z,15.77
2022-10-14T19:23:53.112Z,15.80
2022-10-14T19:26:21.962Z,15.90
2022-10-14T19:28:52.228Z,15.86
2022-10-14T19:31:35.001Z,15.76
2022-10-14T19:34:04.228Z,15.75
2022-10-14T19:36:34.662Z,15.87
2022-10-14T19:39:02.075Z,16.04
2022-10-14T19:41:31.251Z,15.92
2022-10-14T19:43:59.529Z,16.16
2022-10-14T19:46:28.237Z,15.94
2022-10-14T19:48:59.924Z,15.95
2022-10-14T19:51:27.065Z,15.94
2022-10-14T19:53:57.878Z,15.93
2022-10-14T19:56:26.157Z,16.13
2022-10-14T19:58:55.093Z,16.18
2022-10-14T20:01:23.789Z,16.09
2022-10-14T20:03:50.937Z,15.99
2022-10-14T20:06:17.771Z,15.89
2022-10-14T20:08:45.393Z,15.70
2022-10-14T20:11:14.964Z,15.87
2022-10-14T20:13:43.663Z,15.81
2022-10-14T20:16:11.265Z,16.04
2022-10-14T20:18:37.997Z,15.97
2022-10-14T20:21:06.406Z,16.08
2022-10-14T20:23:35.127Z,16.24
2022-10-14T20:26:12.397Z,16.04
2022-10-14T20:28:40.275Z,16.06
2022-10-14T20:31:08.805Z,16.18
2022-10-14T20:33:35.599Z,16.15
2022-10-14T20:36:04.990Z,16.18
2022-10-14T20:38:32.402Z,16.15
2022-10-14T20:41:17.045Z,15.91
2022-10-14T20:43:44.721Z,16.03
2022-10-14T20:46:11.830Z,16.13
2022-10-14T20:48:38.716Z,16.00
2022-10-14T20:51:06.630Z,16.11
2022-10-14T20:53:33.737Z,16.05
2022-10-14T20:56:09.630Z,16.18
2022-10-14T20:58:37.538Z,16.01
2022-10-14T21:01:09.170Z,16.22
2022-10-14T21:03:36.230Z,16.09
2022-10-14T21:06:09.209Z,16.17
2022-10-14T21:08:37.085Z,15.91
2022-10-14T21:11:09.231Z,15.71
2022-10-14T21:13:39.827Z,15.62
2022-10-14T21:16:20.544Z,15.61
2022-10-14T21:18:51.227Z,15.54
2022-10-14T21:21:19.131Z,15.43
2022-10-14T21:23:45.933Z,15.46
2022-10-14T21:26:13.528Z,15.37
2022-10-14T21:28:40.546Z,15.38
2022-10-14T21:31:09.783Z,15.40
2022-10-14T21:33:36.606Z,15.33
2022-10-14T21:36:09.339Z,15.35
2022-10-14T21:38:36.575Z,15.34
2022-10-14T21:41:04.927Z,15.39
2022-10-14T21:43:34.091Z,15.31
2022-10-14T21:46:18.849Z,15.50
2022-10-14T21:48:45.505Z,15.33
2022-10-14T21:51:14.939Z,15.19
2022-10-14T21:53:43.675Z,15.21
2022-10-14T21:56:12.100Z,15.22
2022-10-14T21:58:39.046Z,15.22
2022-10-14T22:01:07.719Z,15.27
2022-10-14T22:03:35.818Z,15.18
2022-10-14T22:08:40.707Z,15.17
2022-10-14T22:11:14.246Z,15.52
2022-10-14T22:13:40.989Z,15.58
2022-10-14T22:16:07.908Z,15.64
2022-10-14T22:18:34.737Z,15.68
2022-10-14T22:21:08.306Z,15.79
2022-10-14T22:23:35.052Z,15.66
2022-10-14T22:26:03.240Z,15.79
2022-10-14T22:28:31.413Z,15.59
2022-10-14T22:31:08.763Z,15.73
2022-10-14T22:33:36.947Z,15.53
2022-10-14T22:36:09.369Z,15.73
2022-10-14T22:38:37.603Z,15.73
2022-10-14T22:41:06.438Z,15.73
2022-10-14T22:43:34.075Z,15.73
2022-10-14T22:46:03.375Z,15.55
2022-10-14T22:48:30.873Z,15.70
2022-10-14T22:51:04.725Z,15.82
2022-10-14T22:53:31.629Z,15.75
2022-10-14T22:55:58.820Z,15.81
2022-10-14T22:58:26.085Z,15.68
2022-10-14T23:00:53.172Z,15.61
2022-10-14T23:03:20.333Z,15.35
2022-10-14T23:05:48.045Z,15.35
2022-10-14T23:08:15.017Z,15.45
2022-10-14T23:10:42.617Z,15.51
2022-10-14T23:13:10.379Z,15.54
2022-10-14T23:15:37.319Z,15.73
2022-10-14T23:18:04.228Z,15.69
2022-10-14T23:20:33.219Z,15.76
2022-10-14T23:22:59.915Z,15.73
2022-10-14T23:25:26.611Z,15.79
2022-10-14T23:27:53.299Z,15.81
2022-10-14T23:30:19.933Z,15.73
2022-10-14T23:32:46.520Z,15.63
2022-10-14T23:35:13.768Z,15.81
2022-10-14T23:37:40.337Z,15.69
2022-10-14T23:40:07.862Z,15.91
2022-10-14T23:42:34.657Z,15.77
2022-10-14T23:45:01.317Z,15.62
2022-10-14T23:47:29.702Z,15.67
2022-10-14T23:49:56.546Z,15.92
2022-10-14T23:52:23.366Z,15.69
2022-10-14T23:54:50.149Z,15.69
2022-10-14T23:57:16.925Z,15.74
2022-10-14T23:59:43.513Z,15.86
